Detall de PIREP

Printer-friendly versionPDF version

[2014/07/17 05:14:00]
Flight IATA:CT3418
Pilot Number:042
Company ICAO:CAT
Aircraft Type:B744/E
PAX:420
Departing Airport: LEBL
Destination Airport: RJAA
Alternate Airport:RJTL
Online: VATSIM
Route:DALIN UN870 SOSUR UM976 SOFFY UQ208 SONOM UQ222 TEDGO UN851 LOHRE BINKA N746 ALAMI KOKAT NRM A333 MELIM AKATA HAB IGROD KADBO R211 SWAMP Y30 COMET R211 KASMI CVC
Flight Level:F350
No Slew and time accel
No pause
Crash detect
Detect pilot in Cockpit between each 30 and 45 minutes
05:14 Zero fuel Weight: 466689 Lbs, Fuel Weight: 382595 Lbs
05:14 VATSIM:LEBL 170430Z 32007KT CAVOK 22/16 Q1018 NOSIG
05:14 VATSIM:RJAA 170430Z 05007KT 360V110 9999 FEW020 BKN/// 28/22 Q1012 BECMG 08008KT RMK 1CU020 A2989
05:18 Parking Brakes off
05:25 Take-off
05:25 Take off Weight: 846593 Lbs
05:25 Wind: 320º @ 007 Knots Heading: 246º
05:25 POS N41º 16´ 56´´ E002º 04´ 27´´
05:25 Gear Up: 199 Knots
05:25 Flaps:4 at 199 Knots
05:25 Flaps:3 at 191 Knots
05:26 Flaps:2 at 234 Knots
05:26 Flaps:1 at 244 Knots
05:27 Flaps:0 at 258 Knots
05:40 Wind:350º@001 Knots Heading: 045º Ground Speed: 470 Knots Altitude 24337 ft
05:55 Wind:032º@012 Knots Heading: 016º Ground Speed: 482 Knots Altitude 31151 ft
06:10 Wind:055º@003 Knots Heading: 021º Ground Speed: 492 Knots Altitude 31866 ft
06:25 Wind:085º@006 Knots Heading: 037º Ground Speed: 490 Knots Altitude 33303 ft
06:40 Wind:093º@005 Knots Heading: 016º Ground Speed: 494 Knots Altitude 33284 ft
06:55 Wind:088º@001 Knots Heading: 036º Ground Speed: 493 Knots Altitude 33270 ft
07:10 Wind:301º@014 Knots Heading: 036º Ground Speed: 496 Knots Altitude 34701 ft
07:11 TOC
07:11 Fuel Weight: 319521 Lb
07:25 Wind:057º@014 Knots Heading: 041º Ground Speed: 479 Knots Altitude 35259 ft
07:40 Wind:174º@009 Knots Heading: 031º Ground Speed: 497 Knots Altitude 35275 ft
07:55 Wind:266º@026 Knots Heading: 032º Ground Speed: 504 Knots Altitude 35236 ft
08:10 Wind:238º@019 Knots Heading: 036º Ground Speed: 508 Knots Altitude 35193 ft
08:25 Wind:272º@014 Knots Heading: 051º Ground Speed: 502 Knots Altitude 35164 ft
08:40 Wind:248º@014 Knots Heading: 053º Ground Speed: 503 Knots Altitude 35167 ft
08:55 Wind:176º@015 Knots Heading: 059º Ground Speed: 499 Knots Altitude 35141 ft
09:10 Wind:138º@009 Knots Heading: 054º Ground Speed: 490 Knots Altitude 35164 ft
09:25 Wind:112º@029 Knots Heading: 063º Ground Speed: 469 Knots Altitude 35288 ft
09:40 Wind:091º@029 Knots Heading: 067º Ground Speed: 460 Knots Altitude 35337 ft
09:55 Wind:120º@019 Knots Heading: 059º Ground Speed: 477 Knots Altitude 36092 ft
10:10 Wind:145º@013 Knots Heading: 066º Ground Speed: 485 Knots Altitude 37214 ft
10:25 Wind:180º@006 Knots Heading: 079º Ground Speed: 486 Knots Altitude 37171 ft
10:40 Wind:290º@006 Knots Heading: 080º Ground Speed: 489 Knots Altitude 37053 ft
10:55 Wind:293º@014 Knots Heading: 087º Ground Speed: 495 Knots Altitude 36971 ft
11:10 Wind:283º@021 Knots Heading: 094º Ground Speed: 502 Knots Altitude 36902 ft
11:25 Wind:300º@022 Knots Heading: 101º Ground Speed: 502 Knots Altitude 36827 ft
11:40 Wind:285º@025 Knots Heading: 106º Ground Speed: 507 Knots Altitude 36797 ft
11:55 Wind:276º@027 Knots Heading: 098º Ground Speed: 509 Knots Altitude 36781 ft
12:10 Wind:263º@037 Knots Heading: 114º Ground Speed: 516 Knots Altitude 36781 ft
12:25 Wind:270º@026 Knots Heading: 117º Ground Speed: 509 Knots Altitude 36788 ft
12:40 Wind:270º@021 Knots Heading: 121º Ground Speed: 507 Knots Altitude 38297 ft
12:55 Wind:256º@019 Knots Heading: 126º Ground Speed: 479 Knots Altitude 38782 ft
13:10 Wind:255º@014 Knots Heading: 129º Ground Speed: 403 Knots Altitude 38789 ft
13:25 Wind:274º@019 Knots Heading: 131º Ground Speed: 401 Knots Altitude 37345 ft
13:40 Wind:268º@010 Knots Heading: 123º Ground Speed: 497 Knots Altitude 36817 ft
13:55 Wind:221º@007 Knots Heading: 126º Ground Speed: 490 Knots Altitude 36843 ft
14:10 Wind:179º@007 Knots Heading: 136º Ground Speed: 484 Knots Altitude 36860 ft
14:25 Wind:158º@012 Knots Heading: 139º Ground Speed: 476 Knots Altitude 36860 ft
14:40 Wind:154º@014 Knots Heading: 139º Ground Speed: 473 Knots Altitude 36843 ft
14:55 Wind:165º@008 Knots Heading: 140º Ground Speed: 478 Knots Altitude 36843 ft
15:10 Wind:167º@005 Knots Heading: 148º Ground Speed: 480 Knots Altitude 36847 ft
15:25 Wind:156º@001 Knots Heading: 143º Ground Speed: 483 Knots Altitude 36879 ft
15:40 Wind:144º@000 Knots Heading: 159º Ground Speed: 483 Knots Altitude 36873 ft
15:55 Wind:107º@003 Knots Heading: 168º Ground Speed: 482 Knots Altitude 36909 ft
16:10 Wind:096º@008 Knots Heading: 169º Ground Speed: 481 Knots Altitude 36952 ft
16:25 Wind:089º@010 Knots Heading: 169º Ground Speed: 483 Knots Altitude 36971 ft
16:40 Wind:153º@002 Knots Heading: 162º Ground Speed: 486 Knots Altitude 36702 ft
16:55 Wind:140º@005 Knots Heading: 139º Ground Speed: 481 Knots Altitude 36978 ft
17:10 Wind:103º@014 Knots Heading: 139º Ground Speed: 477 Knots Altitude 36994 ft
17:14 TOD
17:14 Fuel Weight: 81963 Lb
17:24 Flaps:1 at 272 Knots
17:25 Wind:077º@018 Knots Heading: 154º Ground Speed: 317 Knots Altitude 13346 ft
17:26 Flaps:2 at 230 Knots
17:27 Flaps:3 at 211 Knots
17:33 Gear Down: 168 Knots
17:33 Flaps:4 at 164 Knots
17:33 Flaps:5 at 152 Knots
17:33 Flaps:6 at 147 Knots
17:36 TouchDown:Rate -590 ft/min Speed: 132 Knots
17:37 VATSIM:RJAA 171700Z 07006KT 6000 BR FEW003 SCT005 BKN010 22/21 Q1013 TEMPO 4000 BR FEW003 BKN005
17:37 Land
17:37 Wind:070º@006 Knots
17:37 Heading: 314º
17:37 Flight Duration: 12:12
17:37 Landing Weight: 543452 Lbs
17:37 POS N35º 47´ 59´´ E140º 22´ 54´´
17:40 Parking brakes on
17:40 Block to Block Duration: 12:22
17:40 Final Fuel: 75707 Lbls
17:40 Spent Fuel: 306887 Lbls
17:40 Flight Length: 5714 NM
17:40 TOD Land Length: 109 NM

Exportar CSV

Powered by Drupal - Modified by Danger4k